Time;durP1;ratioP1;P1;durP2;ratioP2;P2;SDS_P1;SDS_P2;PMS_P1;PMS_P2;Temp;Humidity;BMP_temperature;BMP_pressure;BME280_temperature;BME280_humidity;BME280_pressure;Samples;Min_cycle;Max_cycle;Signal;HPM_P1;HPM_P2
2022/06/30 00:02:22;;;;;;;21.10;14.77;;;18.10;99.90;;;;;;6190983;23;20091;-72
2022/06/30 00:04:48;;;;;;;17.75;14.27;;;18.10;99.90;;;;;;6194338;23;20008;-72
2022/06/30 00:07:17;;;;;;;;;;;18.00;99.90;;;;;;6166435;23;20008;-71
2022/06/30 00:09:43;;;;;;;20.13;14.77;;;17.90;99.90;;;;;;6189016;23;20058;-72
2022/06/30 00:12:13;;;;;;;19.77;15.73;;;18.00;99.90;;;;;;6215469;23;20043;-72
2022/06/30 00:14:39;;;;;;;20.88;14.20;;;17.90;99.90;;;;;;6163756;23;20442;-71
2022/06/30 00:17:06;;;;;;;16.98;14.20;;;17.90;99.90;;;;;;6188600;23;20012;-71
2022/06/30 00:19:33;;;;;;;17.98;14.27;;;17.90;99.90;;;;;;6164261;23;20047;-71
2022/06/30 00:21:59;;;;;;;17.67;14.90;;;17.70;99.90;;;;;;6141343;23;20020;-72
2022/06/30 00:24:25;;;;;;;21.75;15.95;;;17.70;99.90;;;;;;6190638;23;20027;-72
2022/06/30 00:26:56;;;;;;;18.90;15.90;;;17.60;99.90;;;;;;6141653;23;20482;-72
2022/06/30 00:29:21;;;;;;;17.92;15.15;;;17.60;99.90;;;;;;6190738;23;20047;-71
2022/06/30 00:31:47;;;;;;;22.73;15.05;;;17.60;99.90;;;;;;6165629;23;20016;-72
2022/06/30 00:34:13;;;;;;;20.88;15.68;;;17.60;99.90;;;;;;6166378;23;20012;-71
2022/06/30 00:36:39;;;;;;;19.55;14.13;;;17.50;99.90;;;;;;6166113;23;20023;-72
2022/06/30 00:39:07;;;;;;;19.58;14.95;;;17.50;99.90;;;;;;6141629;23;20130;-71
2022/06/30 00:41:35;;;;;;;17.40;14.15;;;17.40;99.90;;;;;;6165517;23;20017;-71
2022/06/30 00:44:01;;;;;;;19.08;14.60;;;17.50;99.90;;;;;;6190395;23;20008;-71
2022/06/30 00:46:31;;;;;;;16.67;14.50;;;17.50;99.90;;;;;;6166233;23;20019;-71
2022/06/30 00:48:57;;;;;;;17.40;13.95;;;17.50;99.90;;;;;;6165925;23;20358;-72
2022/06/30 00:51:28;;;;;;;17.27;13.80;;;17.40;99.90;;;;;;6189537;23;20008;-71
2022/06/30 00:53:56;;;;;;;19.23;12.65;;;17.40;99.90;;;;;;6190964;23;20039;-71
2022/06/30 00:56:26;;;;;;;13.25;11.32;;;17.40;99.90;;;;;;6217523;23;20012;-71
2022/06/30 00:58:57;;;;;;;18.00;11.00;;;17.50;99.90;;;;;;6190350;23;20048;-71
2022/06/30 01:01:26;;;;;;;13.35;10.00;;;17.70;99.90;;;;;;6140934;23;20449;-71
2022/06/30 01:03:55;;;;;;;14.30;10.45;;;17.60;99.90;;;;;;6190435;23;20012;-71
2022/06/30 01:06:22;;;;;;;15.15;8.73;;;17.80;99.90;;;;;;6190357;23;20008;-71
2022/06/30 01:08:49;;;;;;;16.42;9.30;;;17.90;99.90;;;;;;6190737;23;20008;-71
2022/06/30 01:14:04;;;;;;;11.00;8.32;;;18.30;99.90;;;;;;6190553;23;20023;-72
2022/06/30 01:16:30;;;;;;;10.25;7.70;;;18.40;99.90;;;;;;6165480;23;20328;-72
2022/06/30 01:18:56;;;;;;;12.63;7.72;;;18.40;99.90;;;;;;6165545;23;20016;-71
2022/06/30 01:21:28;;;;;;;8.60;7.70;;;18.30;99.90;;;;;;6189998;23;20087;-71
2022/06/30 01:23:55;;;;;;;12.38;7.55;;;18.40;99.90;;;;;;6190240;23;20012;-71
2022/06/30 01:26:24;;;;;;;10.50;7.70;;;18.40;99.90;;;;;;6190836;23;20379;-72
2022/06/30 01:28:53;;;;;;;10.35;7.30;;;18.40;99.90;;;;;;6189862;23;20312;-71
2022/06/30 01:31:29;;;;;;;12.73;7.63;;;18.50;99.90;;;;;;6165731;23;20062;-72
2022/06/30 01:33:58;;;;;;;11.55;7.22;;;18.50;99.90;;;;;;6166722;23;20099;-71
2022/06/30 01:36:23;;;;;;;7.93;6.65;;;18.60;99.90;;;;;;6166187;23;20023;-72
2022/06/30 01:38:59;;;;;;;14.32;6.82;;;18.60;99.90;;;;;;6172904;23;20019;-73
2022/06/30 01:41:27;;;;;;;;;;;18.60;99.60;;;;;;6195514;23;20020;-72
2022/06/30 01:43:53;;;;;;;12.23;7.55;;;18.70;99.40;;;;;;6190232;23;20374;-72
2022/06/30 01:46:21;;;;;;;8.77;7.32;;;18.70;99.60;;;;;;6165452;23;20044;-72
2022/06/30 01:48:50;;;;;;;11.00;7.60;;;18.70;99.80;;;;;;6163935;23;20458;-71
2022/06/30 01:51:20;;;;;;;8.40;7.03;;;18.70;99.30;;;;;;6189478;23;20070;-71
2022/06/30 01:53:46;;;;;;;10.65;7.68;;;18.70;99.30;;;;;;6140857;23;20020;-72
2022/06/30 01:56:12;;;;;;;9.88;7.43;;;18.70;99.40;;;;;;6190240;23;20012;-71
2022/06/30 01:58:44;;;;;;;10.20;7.05;;;18.70;99.10;;;;;;6164775;23;20343;-71
2022/06/30 02:01:12;;;;;;;8.73;7.10;;;18.70;99.30;;;;;;6189825;23;20019;-72
2022/06/30 02:03:39;;;;;;;9.90;7.05;;;18.70;99.30;;;;;;6165485;23;20016;-71
2022/06/30 02:06:05;;;;;;;10.32;6.63;;;18.70;98.90;;;;;;6189873;23;20044;-72
2022/06/30 02:08:33;;;;;;;6.90;5.55;;;18.70;98.80;;;;;;6164752;23;20009;-71
2022/06/30 02:11:01;;;;;;;14.18;6.80;;;18.70;98.80;;;;;;6164759;23;20016;-72
2022/06/30 02:13:32;;;;;;;10.25;6.18;;;18.70;98.70;;;;;;6190104;23;20059;-72
2022/06/30 02:15:58;;;;;;;9.15;6.20;;;18.70;98.50;;;;;;6140688;23;20035;-72
2022/06/30 02:18:24;;;;;;;10.43;6.30;;;18.60;98.60;;;;;;6165237;23;20423;-72
2022/06/30 02:20:52;;;;;;;9.40;6.57;;;18.60;98.70;;;;;;6214609;23;20009;-72
2022/06/30 02:23:17;;;;;;;8.75;6.20;;;18.60;98.40;;;;;;6164717;23;20021;-72
2022/06/30 02:25:43;;;;;;;10.73;6.35;;;18.60;98.40;;;;;;6164718;23;20067;-72
2022/06/30 02:28:14;;;;;;;9.95;6.32;;;18.60;98.30;;;;;;6189044;23;20005;-72
2022/06/30 02:30:40;;;;;;;8.77;6.43;;;18.60;98.40;;;;;;6140447;23;20089;-71
2022/06/30 02:33:17;;;;;;;9.55;6.45;;;18.60;98.30;;;;;;6190131;23;20486;-71
2022/06/30 02:35:43;;;;;;;7.40;5.97;;;18.50;98.20;;;;;;6189808;23;20062;-71
2022/06/30 02:38:10;;;;;;;8.98;6.07;;;18.50;98.20;;;;;;6189506;23;20008;-71
2022/06/30 02:40:38;;;;;;;9.30;6.63;;;18.50;98.20;;;;;;6164166;23;20021;-71
2022/06/30 02:43:04;;;;;;;8.43;6.00;;;18.50;98.20;;;;;;6139816;23;20048;-72
2022/06/30 02:45:29;;;;;;;13.05;5.60;;;18.50;98.10;;;;;;6164471;23;20454;-71
2022/06/30 02:47:55;;;;;;;7.45;5.90;;;18.50;98.10;;;;;;6189369;23;20008;-71
2022/06/30 02:50:27;;;;;;;7.97;5.63;;;18.50;97.90;;;;;;6164408;23;20368;-71
2022/06/30 02:52:53;;;;;;;7.85;5.57;;;18.50;98.10;;;;;;6165418;23;20067;-72
2022/06/30 02:55:22;;;;;;;7.00;5.80;;;18.60;97.90;;;;;;6189696;23;20066;-72
2022/06/30 02:57:47;;;;;;;7.97;6.00;;;18.40;98.20;;;;;;6189769;23;20479;-71
2022/06/30 03:00:16;;;;;;;9.50;5.55;;;18.40;98.10;;;;;;6189312;23;20016;-72
2022/06/30 03:02:46;;;;;;;8.50;5.72;;;18.30;98.40;;;;;;6189415;23;20044;-71
2022/06/30 03:05:15;;;;;;;12.55;5.50;;;18.30;98.50;;;;;;6165406;23;20051;-71
2022/06/30 03:07:41;;;;;;;7.30;5.68;;;18.30;98.60;;;;;;6164890;23;20008;-71
2022/06/30 03:10:08;;;;;;;8.27;6.00;;;18.20;98.80;;;;;;6164072;23;20009;-71
2022/06/30 03:12:33;;;;;;;11.60;5.88;;;18.20;98.70;;;;;;6168709;23;20009;-72
2022/06/30 03:14:59;;;;;;;6.10;5.30;;;18.10;98.90;;;;;;6170796;23;20020;-72
2022/06/30 03:17:25;;;;;;;8.40;5.65;;;18.10;99.00;;;;;;6167201;23;20296;-71
2022/06/30 03:19:51;;;;;;;6.85;5.50;;;18.20;98.80;;;;;;6188959;23;20012;-71
2022/06/30 03:22:17;;;;;;;8.90;5.82;;;18.10;99.10;;;;;;6189151;23;20025;-72
2022/06/30 03:24:47;;;;;;;8.48;5.75;;;18.00;99.70;;;;;;6164333;23;20092;-72
2022/06/30 03:27:19;;;;;;;7.07;5.63;;;17.90;99.40;;;;;;6164746;23;20019;-72
2022/06/30 03:29:48;;;;;;;8.43;6.03;;;17.90;99.40;;;;;;6164579;23;20040;-72
2022/06/30 03:32:14;;;;;;;7.18;5.40;;;17.90;99.70;;;;;;6164610;23;20423;-71
2022/06/30 03:34:42;;;;;;;6.57;5.43;;;17.80;99.50;;;;;;6164580;23;20013;-71
2022/06/30 03:37:08;;;;;;;6.55;5.85;;;17.80;99.70;;;;;;6165187;23;20083;-71
2022/06/30 03:39:34;;;;;;;9.60;5.40;;;17.80;99.90;;;;;;6188626;23;20012;-71
2022/06/30 03:42:00;;;;;;;13.13;5.93;;;17.70;99.90;;;;;;6164357;23;20013;-71
2022/06/30 03:44:25;;;;;;;7.20;5.47;;;17.70;99.90;;;;;;6139967;23;20062;-71
2022/06/30 03:46:51;;;;;;;9.98;5.55;;;17.70;99.90;;;;;;6164235;23;20305;-72
2022/06/30 03:49:17;;;;;;;7.70;5.65;;;17.70;99.90;;;;;;6189235;23;20147;-71
2022/06/30 03:51:43;;;;;;;9.20;5.88;;;17.70;99.90;;;;;;6189037;23;20435;-72
2022/06/30 03:54:09;;;;;;;9.15;5.70;;;17.70;99.90;;;;;;6164261;23;20009;-72
2022/06/30 03:56:35;;;;;;;9.65;5.60;;;17.80;99.90;;;;;;6189220;23;20043;-71
2022/06/30 03:59:03;;;;;;;8.65;6.20;;;17.80;99.90;;;;;;6164473;23;20059;-71
2022/06/30 04:01:32;;;;;;;9.60;5.80;;;17.80;99.90;;;;;;6189280;23;20012;-71
2022/06/30 04:03:58;;;;;;;7.50;5.55;;;17.90;99.90;;;;;;6188630;23;20015;-71
2022/06/30 04:06:24;;;;;;;7.25;5.20;;;17.90;99.70;;;;;;6189133;23;20013;-71
2022/06/30 04:08:49;;;;;;;9.73;5.50;;;17.90;99.70;;;;;;6164205;23;20021;-71
2022/06/30 04:11:15;;;;;;;8.63;5.28;;;18.00;99.60;;;;;;6215124;23;20024;-72
2022/06/30 04:13:45;;;;;;;9.25;5.60;;;18.00;99.60;;;;;;6189207;23;20380;-71
2022/06/30 04:16:14;;;;;;;11.98;5.93;;;18.10;99.60;;;;;;6164237;23;20005;-71
2022/06/30 04:18:40;;;;;;;9.77;5.45;;;18.20;99.60;;;;;;6116393;23;20012;-72
2022/06/30 04:21:06;;;;;;;10.95;5.43;;;18.30;99.40;;;;;;6163073;23;20092;-71
2022/06/30 04:23:32;;;;;;;6.47;5.30;;;18.40;99.40;;;;;;6162159;23;20484;-72
2022/06/30 04:25:57;;;;;;;8.63;5.90;;;18.40;99.20;;;;;;6164029;23;20095;-71
2022/06/30 04:28:23;;;;;;;9.15;5.40;;;18.40;99.10;;;;;;6163227;23;20316;-72
2022/06/30 04:33:39;;;;;;;7.57;5.30;;;18.40;99.00;;;;;;6158714;23;20048;-71
2022/06/30 04:36:06;;;;;;;8.60;5.40;;;18.50;99.10;;;;;;6134581;23;20020;-71
2022/06/30 04:38:34;;;;;;;7.63;5.40;;;18.50;99.10;;;;;;6109257;23;20013;-71
2022/06/30 04:44:12;;;;;;;10.93;5.28;;;18.50;99.10;;;;;;6157882;23;20528;-71
2022/06/30 04:46:47;;;;;;;10.98;6.13;;;18.70;99.20;;;;;;6185735;23;20017;-71
2022/06/30 04:49:16;;;;;;;7.40;5.47;;;18.80;98.80;;;;;;6158574;23;20095;-71
2022/06/30 04:51:45;;;;;;;6.97;5.38;;;18.80;98.80;;;;;;6161227;23;20147;-71
2022/06/30 04:54:19;;;;;;;7.32;5.53;;;18.70;98.70;;;;;;6161339;23;20013;-71
2022/06/30 04:56:44;;;;;;;8.15;5.07;;;18.70;99.10;;;;;;6137165;23;20312;-71
2022/06/30 04:59:20;;;;;;;16.38;5.10;;;18.90;99.10;;;;;;6185483;23;20080;-72
2022/06/30 05:01:46;;;;;;;6.88;5.53;;;18.70;99.30;;;;;;6160104;23;20088;-72
2022/06/30 05:04:11;;;;;;;9.07;5.57;;;18.80;99.20;;;;;;6134478;23;20394;-71
2022/06/30 05:06:37;;;;;;;9.55;5.80;;;18.80;99.10;;;;;;6158476;23;20021;-71
2022/06/30 05:09:05;;;;;;;8.05;5.38;;;18.80;99.10;;;;;;6160238;23;20087;-71
2022/06/30 05:11:37;;;;;;;7.78;5.57;;;19.00;98.80;;;;;;6160310;23;20055;-71
2022/06/30 05:18:09;;;;;;;9.55;5.30;;;19.30;98.80;;;;;;6185999;23;20020;-72
2022/06/30 05:20:35;;;;;;;9.82;5.03;;;19.60;98.30;;;;;;6159408;23;20292;-69
2022/06/30 05:23:03;;;;;;;9.27;5.30;;;19.70;98.20;;;;;;6159714;23;20092;-69
2022/06/30 05:28:17;;;;;;;7.50;5.35;;;19.70;98.30;;;;;;6187243;23;20367;-70
2022/06/30 05:30:44;;;;;;;10.55;5.40;;;19.80;98.20;;;;;;6159243;23;20017;-69
2022/06/30 05:33:10;;;;;;;9.25;5.45;;;19.60;98.30;;;;;;6159975;23;20051;-69
2022/06/30 05:35:36;;;;;;;6.97;5.20;;;19.70;98.30;;;;;;6160360;23;20013;-69
2022/06/30 05:38:02;;;;;;;5.97;4.97;;;19.80;97.80;;;;;;6136267;23;20538;-69
2022/06/30 05:40:29;;;;;;;10.40;5.78;;;19.90;97.80;;;;;;6159714;23;20083;-69
2022/06/30 05:42:54;;;;;;;8.23;5.75;;;20.00;97.70;;;;;;6111338;23;20020;-69
2022/06/30 05:45:25;;;;;;;7.18;5.30;;;19.90;97.60;;;;;;6135997;23;20019;-69
2022/06/30 05:47:52;;;;;;;10.88;4.93;;;20.10;97.80;;;;;;6160661;23;20044;-70
2022/06/30 05:50:20;;;;;;;10.75;5.32;;;20.20;97.70;;;;;;6134919;23;20102;-71
2022/06/30 05:52:49;;;;;;;8.55;5.43;;;20.40;97.60;;;;;;6186599;23;20324;-70
2022/06/30 05:55:14;;;;;;;7.85;5.35;;;20.50;97.10;;;;;;6160663;23;20435;-70
2022/06/30 05:57:53;;;;;;;7.57;5.90;;;20.60;97.00;;;;;;6135400;23;20063;-72
2022/06/30 06:00:20;;;;;;;7.32;5.40;;;20.70;96.80;;;;;;6159786;23;20051;-74
2022/06/30 06:06:28;;;;;;;9.52;5.43;;;21.00;96.60;;;;;;6155816;23;20020;-69
2022/06/30 06:08:54;;;;;;;10.80;5.50;;;21.10;96.50;;;;;;6160073;23;20009;-69
2022/06/30 06:11:20;;;;;;;7.38;4.90;;;21.10;96.40;;;;;;6160368;23;20009;-71
2022/06/30 06:13:45;;;;;;;8.40;5.82;;;21.10;96.20;;;;;;6160224;23;20462;-71
2022/06/30 06:16:11;;;;;;;11.52;6.45;;;21.20;95.90;;;;;;6159893;23;20087;-69
2022/06/30 06:18:37;;;;;;;9.55;5.50;;;21.30;96.10;;;;;;6186676;23;20087;-71
2022/06/30 06:21:03;;;;;;;10.43;5.72;;;21.30;96.30;;;;;;6162507;23;20017;-71
2022/06/30 06:23:28;;;;;;;12.25;5.75;;;21.60;95.70;;;;;;6162708;23;20009;-71
2022/06/30 06:25:54;;;;;;;8.23;6.45;;;21.70;95.50;;;;;;6159545;23;20017;-75
2022/06/30 06:31:07;;;;;;;11.60;5.93;;;21.70;95.50;;;;;;6160004;23;20104;-71
2022/06/30 06:33:34;;;;;;;9.20;6.50;;;21.70;95.60;;;;;;6135022;23;20048;-71
2022/06/30 06:36:00;;;;;;;10.93;6.13;;;21.80;95.40;;;;;;6159023;23;20016;-70
2022/06/30 06:38:27;;;;;;;8.93;5.75;;;22.10;95.40;;;;;;6135029;23;20051;-70
2022/06/30 06:40:52;;;;;;;8.57;6.45;;;22.10;94.80;;;;;;6135040;23;20391;-70
2022/06/30 06:43:18;;;;;;;11.20;6.85;;;22.10;95.10;;;;;;6186345;23;20024;-79
2022/06/30 06:45:50;;;;;;;8.27;6.13;;;22.00;95.10;;;;;;6135743;23;20443;-79
2022/06/30 06:48:15;;;;;;;12.13;6.90;;;22.00;95.30;;;;;;6159951;23;20027;-77
2022/06/30 06:50:44;;;;;;;8.65;5.97;;;21.80;95.60;;;;;;6134013;23;20447;-78
2022/06/30 06:53:09;;;;;;;11.30;6.72;;;22.10;95.90;;;;;;6159776;23;20013;-77
2022/06/30 06:55:35;;;;;;;15.02;6.32;;;22.40;95.20;;;;;;6135349;23;20016;-77
2022/06/30 06:58:01;;;;;;;11.18;7.03;;;22.30;94.90;;;;;;6135404;23;20327;-77
2022/06/30 07:00:27;;;;;;;10.30;6.68;;;22.20;95.00;;;;;;6133748;23;20049;-77
2022/06/30 07:02:53;;;;;;;9.80;7.22;;;22.40;95.10;;;;;;6135375;23;20044;-77
2022/06/30 07:05:21;;;;;;;11.70;7.95;;;22.80;94.60;;;;;;6134964;23;20020;-78
2022/06/30 07:07:55;;;;;;;10.00;7.00;;;22.90;94.60;;;;;;6135311;23;20009;-76
2022/06/30 07:10:20;;;;;;;16.90;6.85;;;23.10;94.60;;;;;;6134070;23;20040;-75
2022/06/30 07:12:49;;;;;;;;;;;23.20;94.00;;;;;;6135528;23;20016;-77
2022/06/30 07:15:15;;;;;;;8.52;6.80;;;23.30;93.90;;;;;;6135808;23;19908;-77
2022/06/30 07:17:58;;;;;;;;;;;23.30;93.90;;;;;;6135291;23;20047;-77
2022/06/30 07:20:27;;;;;;;10.18;6.90;;;23.40;93.80;;;;;;6134576;23;19983;-77
2022/06/30 07:22:54;;;;;;;11.32;6.35;;;23.70;93.70;;;;;;6159201;23;20020;-77
2022/06/30 07:25:25;;;;;;;12.20;6.30;;;23.90;93.40;;;;;;6158980;23;20013;-76
2022/06/30 07:27:51;;;;;;;7.68;6.57;;;24.20;93.10;;;;;;6134811;23;20013;-76
2022/06/30 07:30:16;;;;;;;;;;;24.50;92.80;;;;;;6158771;23;20009;-76
2022/06/30 07:32:51;;;;;;;10.60;7.28;;;24.60;92.70;;;;;;6135034;23;19908;-76
2022/06/30 07:35:17;;;;;;;9.60;6.57;;;24.40;92.20;;;;;;6135232;23;20364;-77
2022/06/30 07:37:49;;;;;;;;;;;24.60;92.10;;;;;;6135675;23;20016;-75
2022/06/30 07:40:15;;;;;;;21.60;7.28;;;24.50;92.00;;;;;;6134631;23;19915;-77
2022/06/30 07:42:41;;;;;;;;;;;24.50;92.40;;;;;;6135448;23;20009;-77
2022/06/30 07:51:28;;;;;;;15.55;7.28;;;24.70;92.30;;;;;;6213869;23;20024;-73
2022/06/30 07:53:59;;;;;;;10.43;7.35;;;24.70;92.30;;;;;;6219631;23;20016;-76
2022/06/30 07:56:27;;;;;;;11.38;8.93;;;24.90;91.90;;;;;;6194675;23;20450;-72
2022/06/30 07:58:54;;;;;;;;;;;24.70;91.40;;;;;;6219359;23;20008;-75
2022/06/30 08:01:19;;;;;;;11.38;7.95;;;25.20;91.80;;;;;;6193994;23;19914;-74
2022/06/30 08:03:45;;;;;;;;;;;25.30;91.20;;;;;;6194330;23;20087;-72
2022/06/30 08:06:12;;;;;;;9.50;8.20;;;25.10;91.00;;;;;;6219027;23;19911;-70
2022/06/30 08:08:37;;;;;;;21.27;8.55;;;25.20;91.50;;;;;;6218861;23;20069;-73
2022/06/30 08:11:03;;;;;;;;;;;25.30;91.50;;;;;;6246182;23;20048;-71
2022/06/30 08:13:29;;;;;;;29.63;10.20;;;25.50;91.40;;;;;;6219191;23;19962;-70
2022/06/30 08:15:54;;;;;;;;;;;25.90;91.00;;;;;;6194671;23;20431;-71
2022/06/30 08:18:20;;;;;;;18.15;8.38;;;26.10;90.90;;;;;;6193961;23;19911;-71
2022/06/30 08:20:49;;;;;;;25.00;8.82;;;26.40;90.60;;;;;;6218636;23;20016;-74
2022/06/30 08:23:41;;;;;;;15.02;8.07;;;26.70;88.90;;;;;;6192092;23;20423;-81
2022/06/30 08:26:07;;;;;;;11.40;8.50;;;27.00;90.20;;;;;;6192122;23;20012;-75
2022/06/30 08:28:33;;;;;;;41.00;12.20;;;26.80;89.30;;;;;;6216985;23;20326;-76
2022/06/30 08:31:00;;;;;;;51.63;13.20;;;26.80;87.60;;;;;;6216769;23;20019;-71
2022/06/30 08:33:26;;;;;;;13.35;8.98;;;27.00;89.70;;;;;;6217450;23;20083;-78
2022/06/30 08:35:52;;;;;;;27.42;10.40;;;27.00;87.20;;;;;;6216866;23;20093;-72
2022/06/30 08:38:18;;;;;;;52.45;12.20;;;27.10;88.90;;;;;;6168163;23;20008;-73
2022/06/30 08:43:31;;;;;;;19.73;10.27;;;27.60;87.40;;;;;;6218312;23;20431;-70
2022/06/30 08:45:58;;;;;;;20.13;9.43;;;27.30;85.30;;;;;;6218771;23;20011;-72
2022/06/30 08:48:24;;;;;;;61.78;15.15;;;27.50;85.50;;;;;;6194061;23;20042;-75
2022/06/30 08:55:31;;;;;;;34.78;12.80;;;27.90;84.80;;;;;;6171514;23;20022;-73
2022/06/30 08:58:51;;;;;;;30.58;12.43;;;28.00;85.10;;;;;;6212872;23;20024;-73
2022/06/30 09:06:20;;;;;;;;;;;;;;;;;;;;;
2022/06/30 09:09:43;;;;;;;25.38;10.38;;;28.50;81.00;;;;;;6098437;23;20014;-73
2022/06/30 09:17:02;;;;;;;16.27;10.35;;;29.00;79.30;;;;;;6224602;23;20407;-74
2022/06/30 09:20:14;;;;;;;12.75;8.85;;;28.70;79.50;;;;;;6155941;23;20010;-73
2022/06/30 09:27:00;;;;;;;56.17;13.63;;;29.00;80.70;;;;;;6153838;23;20017;-73
2022/06/30 09:45:46;;;;;;;15.93;11.75;;;29.20;81.50;;;;;;6032691;23;20059;-73
2022/06/30 09:49:46;;;;;;;;;;;;;;;;;;;;;
2022/06/30 10:07:02;;;;;;;32.80;10.73;;;29.40;79.40;;;;;;6130583;23;20017;-73
2022/06/30 10:13:55;;;;;;;14.48;9.27;;;29.50;77.60;;;;;;6026600;23;20434;-75
2022/06/30 11:13:42;;;;;;;11.45;6.65;;;28.80;77.10;;;;;;5739060;25;20014;-71
2022/06/30 11:16:48;;;;;;;14.00;5.28;;;28.80;77.70;;;;;;5717106;25;20043;-70
2022/06/30 11:19:44;;;;;;;11.45;5.00;;;28.80;75.20;;;;;;5929192;24;20448;-70
2022/06/30 11:22:53;;;;;;;10.00;5.40;;;28.80;77.30;;;;;;5850814;24;20088;-71
2022/06/30 11:29:28;;;;;;;10.75;5.72;;;28.70;76.00;;;;;;5897277;24;20021;-71
2022/06/30 11:32:14;;;;;;;10.10;4.97;;;28.60;74.40;;;;;;5923658;24;20309;-72
2022/06/30 12:20:52;;;;;;;9.93;3.63;;;28.00;71.90;;;;;;6075897;23;20092;-71
2022/06/30 12:23:45;;;;;;;10.23;4.03;;;28.00;70.40;;;;;;6159533;23;20056;-73
2022/06/30 12:29:40;;;;;;;12.40;3.92;;;28.10;71.50;;;;;;6143991;23;20024;-74
2022/06/30 12:32:12;;;;;;;12.30;4.22;;;28.20;71.40;;;;;;6160890;23;20009;-77
2022/06/30 12:35:05;;;;;;;11.10;3.55;;;28.10;70.00;;;;;;6135284;23;20013;-76
2022/06/30 12:46:04;;;;;;;;;;;;;;;;;;;;;
2022/06/30 12:48:41;;;;;;;7.13;3.63;;;27.70;72.00;;;;;;6057225;23;20397;-75
2022/06/30 12:51:10;;;;;;;7.70;3.00;;;27.80;71.40;;;;;;6073978;23;20024;-71
2022/06/30 12:53:35;;;;;;;10.18;2.88;;;27.80;71.20;;;;;;6074505;23;20060;-74
2022/06/30 12:56:18;;;;;;;6.65;2.67;;;27.80;70.20;;;;;;6075056;23;20393;-72
2022/06/30 12:58:51;;;;;;;6.25;2.78;;;27.80;69.70;;;;;;6099427;23;20014;-76
2022/06/30 13:01:20;;;;;;;8.40;2.20;;;27.70;70.30;;;;;;6098646;23;20014;-74
2022/06/30 13:03:59;;;;;;;6.28;2.50;;;27.70;70.70;;;;;;6074752;23;20018;-71
2022/06/30 13:06:31;;;;;;;6.13;2.33;;;27.80;70.40;;;;;;6074792;23;20513;-75
2022/06/30 13:08:57;;;;;;;6.55;2.47;;;27.80;70.60;;;;;;6098831;23;20460;-75
2022/06/30 13:11:25;;;;;;;5.40;2.03;;;28.00;71.50;;;;;;6122857;23;20204;-72
2022/06/30 13:13:53;;;;;;;4.85;2.00;;;27.90;70.70;;;;;;6098822;23;20444;-73
2022/06/30 13:16:19;;;;;;;10.55;2.70;;;28.10;71.20;;;;;;6098829;23;20093;-74
2022/06/30 13:18:46;;;;;;;9.73;2.10;;;28.10;73.20;;;;;;6109781;23;20017;-72
2022/06/30 13:21:13;;;;;;;7.45;2.30;;;28.30;72.90;;;;;;6158320;23;20017;-73
2022/06/30 13:23:38;;;;;;;6.35;2.20;;;28.00;73.70;;;;;;6134158;23;20017;-71
2022/06/30 13:26:04;;;;;;;8.57;2.88;;;28.00;74.40;;;;;;6185396;23;20059;-71
2022/06/30 13:28:30;;;;;;;10.07;2.65;;;27.90;74.60;;;;;;6135504;23;20075;-72
2022/06/30 13:30:56;;;;;;;9.43;2.10;;;28.00;74.80;;;;;;6186865;23;20084;-72
2022/06/30 13:33:21;;;;;;;7.63;1.90;;;27.80;74.00;;;;;;6186910;23;20150;-70
2022/06/30 13:35:51;;;;;;;5.50;1.85;;;27.90;74.10;;;;;;6160712;23;20048;-76
2022/06/30 13:38:24;;;;;;;5.47;1.73;;;27.80;73.30;;;;;;6136276;23;20075;-76
2022/06/30 13:40:50;;;;;;;7.38;1.55;;;27.90;72.50;;;;;;6160390;23;20477;-75
2022/06/30 13:43:19;;;;;;;11.68;1.52;;;27.70;73.40;;;;;;6186723;23;20044;-75
2022/06/30 13:45:45;;;;;;;7.20;1.42;;;27.60;72.40;;;;;;6160395;23;20088;-78
2022/06/30 14:35:34;;;;;;;5.63;1.23;;;26.30;70.40;;;;;;6068783;23;20566;-78
2022/06/30 14:38:54;;;;;;;3.60;1.20;;;26.10;70.50;;;;;;6043979;23;20026;-82
2022/06/30 14:48:29;;;;;;;3.55;1.13;;;26.10;71.60;;;;;;5984383;23;19939;-77
2022/06/30 14:50:57;;;;;;;3.85;1.00;;;26.00;71.10;;;;;;5984354;23;20023;-78
2022/06/30 14:53:57;;;;;;;3.10;1.05;;;26.40;70.90;;;;;;5985204;23;20034;-76
2022/06/30 14:57:30;;;;;;;3.90;1.10;;;26.60;70.50;;;;;;5875451;24;20476;-80
2022/06/30 15:33:22;;;;;;;6.45;1.23;;;29.30;61.30;;;;;;5936659;24;20030;-73
2022/06/30 15:35:57;;;;;;;4.55;1.55;;;29.40;60.00;;;;;;5948997;24;20052;-78
2022/06/30 16:23:22;;;;;;;6.38;1.40;;;27.10;71.40;;;;;;6185364;23;20471;-77
2022/06/30 16:45:33;;;;;;;4.57;1.42;;;24.80;79.50;;;;;;6186423;22;20324;-81
2022/06/30 16:52:35;;;;;;;5.60;1.42;;;24.70;80.30;;;;;;6176311;23;20961;-73
2022/06/30 17:01:39;;;;;;;4.68;1.65;;;25.30;80.10;;;;;;6093146;23;20021;-75
2022/06/30 17:04:20;;;;;;;6.30;1.77;;;25.90;79.30;;;;;;6076150;23;20014;-73
2022/06/30 17:07:29;;;;;;;12.82;1.80;;;26.30;75.40;;;;;;6072166;23;20006;-80
2022/06/30 17:09:55;;;;;;;4.43;1.50;;;26.10;75.20;;;;;;6070055;23;20014;-67
2022/06/30 17:13:03;;;;;;;4.47;1.75;;;25.80;76.70;;;;;;6046192;23;20111;-74
2022/06/30 17:16:03;;;;;;;5.07;1.52;;;25.30;77.70;;;;;;6116823;23;20039;-74
2022/06/30 17:22:21;;;;;;;4.43;1.20;;;24.50;80.60;;;;;;6184569;23;20016;-77
2022/06/30 17:25:26;;;;;;;4.65;1.35;;;24.10;82.10;;;;;;6137885;23;20067;-77
2022/06/30 17:28:51;;;;;;;10.32;1.65;;;24.00;83.60;;;;;;6100322;23;20461;-73
2022/06/30 17:31:23;;;;;;;;;;;23.90;83.40;;;;;;6043702;23;20017;-71
2022/06/30 17:34:04;;;;;;;6.32;1.73;;;23.60;85.00;;;;;;6130432;23;19915;-72
2022/06/30 17:36:30;;;;;;;6.05;1.73;;;23.50;84.60;;;;;;6134176;23;20041;-72
2022/06/30 17:38:59;;;;;;;6.43;1.98;;;23.30;84.10;;;;;;6136060;23;20016;-71
2022/06/30 17:41:25;;;;;;;7.25;2.03;;;23.10;87.10;;;;;;6159610;23;20040;-71
2022/06/30 17:47:44;;;;;;;6.03;1.40;;;22.80;88.40;;;;;;6186725;23;20071;-72
2022/06/30 18:13:41;;;;;;;7.40;2.00;;;21.50;92.00;;;;;;6160257;23;20020;-71
2022/06/30 18:16:10;;;;;;;10.07;2.10;;;21.30;92.40;;;;;;6135707;23;20040;-71
2022/06/30 18:18:39;;;;;;;4.70;1.42;;;21.20;92.70;;;;;;6160092;23;20051;-70
2022/06/30 18:21:08;;;;;;;5.85;1.33;;;21.10;92.60;;;;;;6159458;23;20017;-71
2022/06/30 18:23:44;;;;;;;5.18;1.80;;;20.90;93.30;;;;;;6135168;23;20016;-70
2022/06/30 18:26:13;;;;;;;7.90;2.00;;;20.80;92.90;;;;;;6112863;23;20083;-70
2022/06/30 18:28:46;;;;;;;5.07;1.25;;;20.70;93.40;;;;;;6111298;23;20055;-71
2022/06/30 18:31:26;;;;;;;5.03;1.25;;;20.60;93.00;;;;;;6165759;23;20432;-69
2022/06/30 18:34:01;;;;;;;3.67;1.25;;;20.60;92.80;;;;;;6135653;23;20087;-80
2022/06/30 18:36:28;;;;;;;4.40;1.30;;;20.40;92.90;;;;;;6134525;23;20009;-73
2022/06/30 18:38:53;;;;;;;2.92;1.30;;;20.20;92.80;;;;;;6158425;23;20040;-75
2022/06/30 18:41:25;;;;;;;9.18;1.83;;;20.20;93.30;;;;;;6157942;23;20017;-73
2022/06/30 18:43:52;;;;;;;3.70;1.30;;;20.10;93.60;;;;;;6134298;23;20028;-73
2022/06/30 18:46:18;;;;;;;5.28;1.40;;;20.00;93.40;;;;;;6133879;23;20064;-70
2022/06/30 18:48:44;;;;;;;6.22;1.40;;;19.80;93.60;;;;;;6132462;23;20009;-72
2022/06/30 18:51:13;;;;;;;3.50;0.98;;;19.70;93.90;;;;;;6156622;23;20482;-75
2022/06/30 18:53:38;;;;;;;5.72;1.55;;;19.60;94.00;;;;;;6133623;23;20013;-76
2022/06/30 18:56:05;;;;;;;5.75;1.75;;;19.50;94.20;;;;;;6109443;23;20013;-76
2022/06/30 18:58:31;;;;;;;7.03;1.88;;;19.40;94.80;;;;;;6133348;23;20115;-77
2022/06/30 19:00:57;;;;;;;10.40;2.55;;;19.30;95.20;;;;;;6133160;23;20044;-73
2022/06/30 19:03:22;;;;;;;7.80;2.28;;;19.10;95.00;;;;;;6158436;23;20009;-73
2022/06/30 19:05:48;;;;;;;7.35;2.30;;;19.10;95.00;;;;;;6133737;23;20017;-75
2022/06/30 19:08:14;;;;;;;6.20;2.17;;;18.90;94.90;;;;;;6158486;23;20119;-71
2022/06/30 19:10:39;;;;;;;9.02;1.95;;;18.90;95.10;;;;;;6157671;23;20013;-71
2022/06/30 19:13:05;;;;;;;7.07;2.22;;;18.90;94.90;;;;;;6158361;23;20100;-71
2022/06/30 19:15:31;;;;;;;15.68;2.25;;;18.80;95.10;;;;;;6133961;23;20023;-74
2022/06/30 19:17:57;;;;;;;;;;;18.80;95.20;;;;;;6159226;23;20012;-74
2022/06/30 19:20:22;;;;;;;8.88;2.30;;;18.70;95.80;;;;;;6132903;23;19916;-72
2022/06/30 19:22:48;;;;;;;5.97;1.77;;;18.60;95.70;;;;;;6158153;23;20086;-77
2022/06/30 19:25:14;;;;;;;8.63;2.78;;;18.50;95.70;;;;;;6133680;23;20008;-77
2022/06/30 19:27:45;;;;;;;9.40;2.47;;;18.40;96.20;;;;;;6133753;23;20017;-76
2022/06/30 19:30:11;;;;;;;9.90;2.75;;;18.30;96.50;;;;;;6132748;23;20084;-72
2022/06/30 19:32:37;;;;;;;;;;;18.20;97.00;;;;;;6158760;23;20009;-70
2022/06/30 19:35:06;;;;;;;7.03;2.20;;;18.10;97.10;;;;;;6158277;23;19914;-72
2022/06/30 19:37:32;;;;;;;9.93;2.42;;;18.00;96.80;;;;;;6158389;23;20336;-71
2022/06/30 19:39:57;;;;;;;11.45;2.10;;;18.00;97.60;;;;;;6133005;23;20019;-71
2022/06/30 19:42:29;;;;;;;11.75;2.70;;;17.90;97.70;;;;;;6132301;23;20446;-71
2022/06/30 19:44:56;;;;;;;13.15;3.00;;;17.80;97.70;;;;;;6132857;23;20009;-74